KRNT - Renton
Updated: Wed, 22-Jan-2020 6:53am PST

 Wind from S
Wind: S 3 mph , 6 km/h
Temperature: 45°F , 7°C
Dew Point: 39°F , 4°C
Humidity: 81%
Barometer: 30.02 inHg , 1016.6 hPa
Visibility: 10 miles , 16 km
Cloud details: 4600 ft
8000 ft
2020/01/22 14:53 KRNT 221453Z 17003KT 10SM FEW046 OVC080 07/04 A3002 RMK AO2 SLP169 T00720039 50001
KBFI - Seattle-Boeing
Updated: Wed, 22-Jan-2020 6:53am PST

 Wind from SSE
Wind: SSE 8 mph , 13 km/h
Temperature: 45°F , 7°C
Wind Chill: 41°F , 5°C
Dew Point: 39°F , 4°C
Humidity: 81%
Barometer: 30.02 inHg , 1016.6 hPa
Visibility: 10 miles , 16 km
Cloud details: 4000 ft
5500 ft
8500 ft
2020/01/22 14:53 KBFI 221453Z 16007KT 10SM FEW040 SCT055 OVC085 07/04 A3002 RMK AO2 SLP164 T00720044 50006
 
KSEA - Seattle
Updated: Wed, 22-Jan-2020 6:53am PST

 Wind from S
Wind: S 9 mph , 15 km/h
Temperature: 45°F , 7°C
Wind Chill: 40°F , 4°C
Dew Point: 39°F , 4°C
Humidity: 81%
Barometer: 30.01 inHg , 1016.3 hPa
Visibility: 10 miles , 16 km
Cloud details: 1300 ft
3600 ft
7500 ft
2020/01/22 14:53 KSEA 221453Z 17008KT 10SM FEW013 FEW036 OVC075 07/04 A3001 RMK AO2 RAE28 SLP169 P0000 60000 T00670044 50006
KSMP - Stampede Pass
Updated: Wed, 22-Jan-2020 7:15am PST
Light snow, Mist, Overcast
Light snow, Mist, Overcast
 Wind from varies
Wind: varies 6 mph , 9 km/h
Temperature: 34°F , 1°C
Wind Chill: 29°F , -2°C
Dew Point: 30°F , -1°C
Humidity: 87%
Barometer: 29.93 inHg , 1013.5 hPa
Summary: Light snow, Mist
Visibility: 1 1/4 miles , 2 km
Cloud details: 700 ft
1200 ft
2020/01/22 15:15 KSMP 221515Z AUTO VRB05KT 1 1/4SM -SN BR SCT007 OVC012 01/M01 A2993 RMK AO2 SNB1458 P0001 T00061011